sensor_id;sensor_type;location;lat;lon;timestamp;pressure;altitude;pressure_sealevel;temperature;humidity
71956;BME280;59829;50.562;6.258;2024-02-16T00:03:27;95295.78;;;12.91;100.00
71956;BME280;59829;50.562;6.258;2024-02-16T00:13:27;95300.63;;;12.94;100.00
71956;BME280;59829;50.562;6.258;2024-02-16T00:23:27;95301.28;;;12.96;100.00
71956;BME280;59829;50.562;6.258;2024-02-16T00:33:28;95298.56;;;12.98;100.00
71956;BME280;59829;50.562;6.258;2024-02-16T00:43:29;95298.41;;;12.99;100.00
71956;BME280;59829;50.562;6.258;2024-02-16T00:53:29;95300.03;;;13.01;100.00
71956;BME280;59829;50.562;6.258;2024-02-16T01:03:29;95293.94;;;13.02;100.00
71956;BME280;59829;50.562;6.258;2024-02-16T01:13:30;95284.59;;;13.01;100.00
71956;BME280;59829;50.562;6.258;2024-02-16T01:23:30;95286.22;;;13.02;100.00
71956;BME280;59829;50.562;6.258;2024-02-16T01:33:31;95284.47;;;13.02;100.00
71956;BME280;59829;50.562;6.258;2024-02-16T01:43:34;95275.00;;;13.03;100.00
71956;BME280;59829;50.562;6.258;2024-02-16T01:53:35;95268.09;;;13.03;100.00
71956;BME280;59829;50.562;6.258;2024-02-16T02:03:37;95285.94;;;13.05;100.00
71956;BME280;59829;50.562;6.258;2024-02-16T02:13:37;95282.41;;;13.06;100.00
71956;BME280;59829;50.562;6.258;2024-02-16T02:23:37;95285.13;;;13.04;100.00
71956;BME280;59829;50.562;6.258;2024-02-16T02:33:38;95263.75;;;13.04;100.00
71956;BME280;59829;50.562;6.258;2024-02-16T02:43:38;95279.03;;;13.05;100.00
71956;BME280;59829;50.562;6.258;2024-02-16T02:53:39;95284.00;;;13.07;100.00
71956;BME280;59829;50.562;6.258;2024-02-16T03:03:40;95268.28;;;13.10;100.00
71956;BME280;59829;50.562;6.258;2024-02-16T03:13:40;95265.06;;;13.08;100.00
71956;BME280;59829;50.562;6.258;2024-02-16T03:23:40;95255.56;;;13.08;100.00
71956;BME280;59829;50.562;6.258;2024-02-16T03:33:41;95245.28;;;13.08;100.00
71956;BME280;59829;50.562;6.258;2024-02-16T03:43:41;95257.19;;;13.09;100.00
71956;BME280;59829;50.562;6.258;2024-02-16T03:53:43;95275.84;;;13.11;100.00
71956;BME280;59829;50.562;6.258;2024-02-16T04:03:45;95275.03;;;13.11;100.00
71956;BME280;59829;50.562;6.258;2024-02-16T04:13:45;95267.97;;;13.13;100.00
71956;BME280;59829;50.562;6.258;2024-02-16T04:23:45;95278.25;;;13.13;100.00
71956;BME280;59829;50.562;6.258;2024-02-16T04:33:46;95279.06;;;13.13;100.00
71956;BME280;59829;50.562;6.258;2024-02-16T04:43:46;95274.72;;;13.14;100.00
71956;BME280;59829;50.562;6.258;2024-02-16T04:53:46;95279.88;;;13.14;100.00
71956;BME280;59829;50.562;6.258;2024-02-16T05:03:48;95269.59;;;13.14;100.00
71956;BME280;59829;50.562;6.258;2024-02-16T05:13:48;95249.00;;;13.14;100.00
71956;BME280;59829;50.562;6.258;2024-02-16T05:23:49;95260.91;;;13.15;100.00
71956;BME280;59829;50.562;6.258;2024-02-16T05:33:50;95259.94;;;13.16;100.00
71956;BME280;59829;50.562;6.258;2024-02-16T05:43:51;95255.78;;;13.15;100.00
71956;BME280;59829;50.562;6.258;2024-02-16T05:53:51;95257.38;;;13.16;100.00
71956;BME280;59829;50.562;6.258;2024-02-16T06:03:51;95249.66;;;13.16;100.00
71956;BME280;59829;50.562;6.258;2024-02-16T06:13:52;95257.22;;;13.17;100.00
71956;BME280;59829;50.562;6.258;2024-02-16T06:23:52;95259.78;;;13.17;100.00
71956;BME280;59829;50.562;6.258;2024-02-16T06:33:52;95270.91;;;13.18;100.00
71956;BME280;59829;50.562;6.258;2024-02-16T06:43:53;95270.09;;;13.17;100.00
71956;BME280;59829;50.562;6.258;2024-02-16T06:53:53;95298.38;;;13.17;100.00
71956;BME280;59829;50.562;6.258;2024-02-16T07:03:53;95306.09;;;13.17;100.00
71956;BME280;59829;50.562;6.258;2024-02-16T07:13:54;95331.00;;;13.17;100.00
71956;BME280;59829;50.562;6.258;2024-02-16T07:23:55;95336.16;;;13.17;100.00
71956;BME280;59829;50.562;6.258;2024-02-16T07:33:55;95358.38;;;13.18;100.00
71956;BME280;59829;50.562;6.258;2024-02-16T07:43:55;95366.75;;;13.20;100.00
71956;BME280;59829;50.562;6.258;2024-02-16T07:53:56;95384.75;;;13.20;100.00
71956;BME280;59829;50.562;6.258;2024-02-16T08:03:56;95392.47;;;13.20;100.00
71956;BME280;59829;50.562;6.258;2024-02-16T08:13:56;95414.66;;;13.21;100.00
71956;BME280;59829;50.562;6.258;2024-02-16T08:24:00;95426.56;;;13.22;100.00
71956;BME280;59829;50.562;6.258;2024-02-16T08:34:00;95444.94;;;13.27;100.00
71956;BME280;59829;50.562;6.258;2024-02-16T08:44:01;95447.50;;;13.27;100.00
71956;BME280;59829;50.562;6.258;2024-02-16T08:54:01;95450.88;;;13.27;100.00
71956;BME280;59829;50.562;6.258;2024-02-16T09:04:02;95473.09;;;13.28;100.00
71956;BME280;59829;50.562;6.258;2024-02-16T09:14:03;95488.38;;;13.30;100.00
71956;BME280;59829;50.562;6.258;2024-02-16T09:24:03;95490.94;;;13.30;100.00
71956;BME280;59829;50.562;6.258;2024-02-16T09:34:04;95494.16;;;13.32;100.00
71956;BME280;59829;50.562;6.258;2024-02-16T09:44:05;95497.41;;;13.34;100.00
71956;BME280;59829;50.562;6.258;2024-02-16T09:54:06;95512.84;;;13.34;100.00
71956;BME280;59829;50.562;6.258;2024-02-16T10:04:08;95529.22;;;13.33;100.00
71956;BME280;59829;50.562;6.258;2024-02-16T10:14:09;95537.75;;;13.34;100.00
71956;BME280;59829;50.562;6.258;2024-02-16T10:24:11;95542.75;;;13.35;100.00
71956;BME280;59829;50.562;6.258;2024-02-16T10:34:14;95557.22;;;13.36;100.00
71956;BME280;59829;50.562;6.258;2024-02-16T10:44:16;95566.44;;;13.39;100.00
71956;BME280;59829;50.562;6.258;2024-02-16T10:54:22;95563.88;;;13.39;100.00
71956;BME280;59829;50.562;6.258;2024-02-16T11:04:23;95571.44;;;13.40;100.00
71956;BME280;59829;50.562;6.258;2024-02-16T11:14:23;95571.31;;;13.42;100.00
71956;BME280;59829;50.562;6.258;2024-02-16T11:24:30;95582.41;;;13.42;100.00
71956;BME280;59829;50.562;6.258;2024-02-16T11:34:31;95592.69;;;13.42;100.00
71956;BME280;59829;50.562;6.258;2024-02-16T11:44:33;95601.22;;;13.43;100.00
71956;BME280;59829;50.562;6.258;2024-02-16T11:54:35;95610.84;;;13.41;100.00
71956;BME280;59829;50.562;6.258;2024-02-16T12:04:36;95608.13;;;13.42;100.00
71956;BME280;59829;50.562;6.258;2024-02-16T12:14:37;95605.69;;;13.41;100.00
71956;BME280;59829;50.562;6.258;2024-02-16T12:24:38;95624.09;;;13.46;100.00
71956;BME280;59829;50.562;6.258;2024-02-16T12:34:38;95624.84;;;13.56;100.00
71956;BME280;59829;50.562;6.258;2024-02-16T12:44:39;95625.66;;;13.56;100.00
71956;BME280;59829;50.562;6.258;2024-02-16T12:54:39;95633.22;;;13.58;100.00
71956;BME280;59829;50.562;6.258;2024-02-16T13:04:39;95638.22;;;13.60;100.00
71956;BME280;59829;50.562;6.258;2024-02-16T13:14:40;95645.16;;;13.59;100.00
71956;BME280;59829;50.562;6.258;2024-02-16T13:24:40;95651.41;;;13.56;100.00
71956;BME280;59829;50.562;6.258;2024-02-16T13:34:41;95663.84;;;13.51;100.00
71956;BME280;59829;50.562;6.258;2024-02-16T13:44:42;95661.94;;;13.53;100.00
71956;BME280;59829;50.562;6.258;2024-02-16T13:54:43;95671.97;;;13.56;100.00
71956;BME280;59829;50.562;6.258;2024-02-16T14:04:43;95685.88;;;13.64;100.00
71956;BME280;59829;50.562;6.258;2024-02-16T14:14:44;95679.78;;;13.65;100.00
71956;BME280;59829;50.562;6.258;2024-02-16T14:24:44;95689.28;;;13.64;100.00
71956;BME280;59829;50.562;6.258;2024-02-16T14:34:44;95704.19;;;13.61;100.00
71956;BME280;59829;50.562;6.258;2024-02-16T14:44:45;95699.34;;;13.57;100.00
71956;BME280;59829;50.562;6.258;2024-02-16T14:54:46;95711.81;;;13.52;100.00
71956;BME280;59829;50.562;6.258;2024-02-16T15:04:46;95722.66;;;13.46;100.00
71956;BME280;59829;50.562;6.258;2024-02-16T15:14:47;95730.00;;;13.41;100.00
71956;BME280;59829;50.562;6.258;2024-02-16T15:24:47;95745.75;;;13.38;100.00
71956;BME280;59829;50.562;6.258;2024-02-16T15:34:48;95750.88;;;13.38;100.00
71956;BME280;59829;50.562;6.258;2024-02-16T15:44:53;95763.75;;;13.38;100.00
71956;BME280;59829;50.562;6.258;2024-02-16T15:54:53;95781.63;;;13.40;100.00
71956;BME280;59829;50.562;6.258;2024-02-16T16:04:53;95805.59;;;13.40;100.00
71956;BME280;59829;50.562;6.258;2024-02-16T16:14:54;95827.78;;;13.41;100.00
71956;BME280;59829;50.562;6.258;2024-02-16T16:24:54;95834.56;;;13.42;100.00
71956;BME280;59829;50.562;6.258;2024-02-16T16:34:55;95850.81;;;13.43;100.00
71956;BME280;59829;50.562;6.258;2024-02-16T16:44:56;95891.03;;;13.44;100.00
71956;BME280;59829;50.562;6.258;2024-02-16T16:54:56;95902.28;;;13.43;100.00
71956;BME280;59829;50.562;6.258;2024-02-16T17:04:57;95921.09;;;13.43;100.00
71956;BME280;59829;50.562;6.258;2024-02-16T17:14:57;95942.63;;;13.42;100.00
71956;BME280;59829;50.562;6.258;2024-02-16T17:24:58;95963.22;;;13.42;100.00
71956;BME280;59829;50.562;6.258;2024-02-16T17:34:58;95982.44;;;13.48;100.00
71956;BME280;59829;50.562;6.258;2024-02-16T17:44:58;95999.78;;;13.55;100.00
71956;BME280;59829;50.562;6.258;2024-02-16T17:55:00;96013.59;;;13.54;100.00
71956;BME280;59829;50.562;6.258;2024-02-16T18:05:01;96027.16;;;13.56;100.00
71956;BME280;59829;50.562;6.258;2024-02-16T18:15:02;96048.56;;;13.57;100.00
71956;BME280;59829;50.562;6.258;2024-02-16T18:25:04;96068.56;;;13.53;100.00
71956;BME280;59829;50.562;6.258;2024-02-16T18:35:05;96073.72;;;13.53;100.00
71956;BME280;59829;50.562;6.258;2024-02-16T18:45:07;96098.78;;;13.51;100.00
71956;BME280;59829;50.562;6.258;2024-02-16T18:55:08;96106.78;;;13.48;100.00
71956;BME280;59829;50.562;6.258;2024-02-16T19:05:09;96117.06;;;13.48;100.00
71956;BME280;59829;50.562;6.258;2024-02-16T19:15:10;96139.56;;;13.46;100.00
71956;BME280;59829;50.562;6.258;2024-02-16T19:25:11;96154.84;;;13.48;100.00
71956;BME280;59829;50.562;6.258;2024-02-16T19:35:11;96164.47;;;13.46;100.00
71956;BME280;59829;50.562;6.258;2024-02-16T19:45:14;96180.72;;;13.46;100.00
71956;BME280;59829;50.562;6.258;2024-02-16T19:55:17;96200.50;;;13.46;100.00
71956;BME280;59829;50.562;6.258;2024-02-16T20:05:18;96208.22;;;13.46;100.00
71956;BME280;59829;50.562;6.258;2024-02-16T20:15:22;96223.53;;;13.47;100.00
71956;BME280;59829;50.562;6.258;2024-02-16T20:25:28;96236.41;;;13.47;100.00
71956;BME280;59829;50.562;6.258;2024-02-16T20:35:28;96250.91;;;13.48;100.00
71956;BME280;59829;50.562;6.258;2024-02-16T20:45:29;96254.41;;;13.47;100.00
71956;BME280;59829;50.562;6.258;2024-02-16T20:55:29;96259.56;;;13.47;100.00
71956;BME280;59829;50.562;6.258;2024-02-16T21:05:29;96275.94;;;13.46;100.00
71956;BME280;59829;50.562;6.258;2024-02-16T21:15:30;96284.75;;;13.44;100.00
71956;BME280;59829;50.562;6.258;2024-02-16T21:25:30;96302.88;;;13.42;100.00
71956;BME280;59829;50.562;6.258;2024-02-16T21:35:31;96311.56;;;13.41;100.00
71956;BME280;59829;50.562;6.258;2024-02-16T21:45:33;96319.28;;;13.41;100.00
71956;BME280;59829;50.562;6.258;2024-02-16T21:55:33;96327.00;;;13.41;100.00
71956;BME280;59829;50.562;6.258;2024-02-16T22:05:34;96350.84;;;13.43;100.00
71956;BME280;59829;50.562;6.258;2024-02-16T22:15:34;96367.91;;;13.44;100.00
71956;BME280;59829;50.562;6.258;2024-02-16T22:25:35;96376.31;;;13.46;100.00
71956;BME280;59829;50.562;6.258;2024-02-16T22:35:38;96402.06;;;13.46;100.00
71956;BME280;59829;50.562;6.258;2024-02-16T22:45:38;96409.78;;;13.46;100.00
71956;BME280;59829;50.562;6.258;2024-02-16T22:55:41;96427.78;;;13.46;100.00
71956;BME280;59829;50.562;6.258;2024-02-16T23:05:41;96424.41;;;13.46;100.00
71956;BME280;59829;50.562;6.258;2024-02-16T23:15:42;96443.25;;;13.46;100.00
71956;BME280;59829;50.562;6.258;2024-02-16T23:25:43;96461.25;;;13.46;100.00
71956;BME280;59829;50.562;6.258;2024-02-16T23:35:43;96465.72;;;13.44;100.00
71956;BME280;59829;50.562;6.258;2024-02-16T23:45:43;96474.25;;;13.45;100.00
71956;BME280;59829;50.562;6.258;2024-02-16T23:55:44;96492.13;;;13.46;100.00
